Time;durP1;ratioP1;P1;durP2;ratioP2;P2;SDS_P1;SDS_P2;PMS_P1;PMS_P2;Temp;Humidity;BMP_temperature;BMP_pressure;BME280_temperature;BME280_humidity;BME280_pressure;Samples;Min_cycle;Max_cycle;Signal;HPM_P1;HPM_P2
2022/04/10 00:00:59;;;;;;;1.43;0.57;;;3.40;99.90;;;;;;4938319;29;20086;-86
2022/04/10 00:03:24;;;;;;;1.53;0.57;;;3.40;99.90;;;;;;4941179;28;20063;-86
2022/04/10 00:05:52;;;;;;;2.03;0.60;;;3.40;99.90;;;;;;4938522;29;20054;-85
2022/04/10 00:08:18;;;;;;;6.37;1.10;;;3.40;99.90;;;;;;4939770;29;20024;-86
2022/04/10 00:10:43;;;;;;;2.27;0.70;;;3.40;99.90;;;;;;4954458;28;20028;-86
2022/04/10 00:13:10;;;;;;;2.13;0.77;;;3.40;99.90;;;;;;4935018;29;20040;-86
2022/04/10 00:15:36;;;;;;;2.07;0.80;;;3.40;99.90;;;;;;4934584;29;20039;-86
2022/04/10 00:18:01;;;;;;;1.97;0.77;;;3.40;99.90;;;;;;4934103;29;20062;-85
2022/04/10 00:20:27;;;;;;;2.83;0.80;;;3.40;99.90;;;;;;4934904;28;20045;-85
2022/04/10 00:22:53;;;;;;;3.07;0.97;;;3.40;99.90;;;;;;4947915;28;20039;-85
2022/04/10 00:25:20;;;;;;;3.00;0.80;;;3.60;99.90;;;;;;4954952;28;20109;-86
2022/04/10 00:27:46;;;;;;;4.67;0.70;;;3.30;99.90;;;;;;4952561;28;20047;-85
2022/04/10 00:30:14;;;;;;;1.53;0.73;;;3.40;99.90;;;;;;4956539;28;20031;-86
2022/04/10 00:32:40;;;;;;;1.53;0.70;;;3.40;99.90;;;;;;4956899;28;20031;-86
2022/04/10 00:35:08;;;;;;;3.53;0.73;;;3.40;99.90;;;;;;4953168;28;20062;-86
2022/04/10 00:37:34;;;;;;;1.23;0.70;;;3.30;99.90;;;;;;4972002;28;20031;-86
2022/04/10 00:40:00;;;;;;;1.23;0.70;;;3.30;99.90;;;;;;4957035;28;20110;-86
2022/04/10 00:42:33;;;;;;;2.47;0.90;;;3.30;99.90;;;;;;4957185;28;20434;-85
2022/04/10 00:44:59;;;;;;;2.00;0.70;;;3.30;99.90;;;;;;4953929;28;20042;-86
2022/04/10 00:47:25;;;;;;;2.67;0.97;;;3.30;99.90;;;;;;4937355;29;20031;-86
2022/04/10 00:49:51;;;;;;;1.90;0.90;;;3.30;99.90;;;;;;4938718;29;20537;-86
2022/04/10 00:52:18;;;;;;;5.17;0.90;;;3.40;99.90;;;;;;4946891;28;20062;-86
2022/04/10 00:54:44;;;;;;;4.30;1.00;;;3.30;99.90;;;;;;4958381;28;20035;-86
2022/04/10 00:57:11;;;;;;;2.97;1.07;;;3.30;99.90;;;;;;4972620;28;20038;-85
2022/04/10 00:59:36;;;;;;;1.63;0.70;;;3.30;99.90;;;;;;4957614;28;20434;-85
2022/04/10 01:02:03;;;;;;;2.90;0.70;;;3.30;99.90;;;;;;4971546;28;20038;-87
2022/04/10 01:04:28;;;;;;;2.27;0.70;;;3.30;99.90;;;;;;4972948;28;20028;-86
2022/04/10 01:06:56;;;;;;;1.80;0.77;;;3.30;99.90;;;;;;4957569;28;20039;-86
2022/04/10 01:09:24;;;;;;;2.67;1.10;;;3.30;99.90;;;;;;4957538;28;20019;-86
2022/04/10 01:11:52;;;;;;;2.17;0.87;;;3.30;99.90;;;;;;4968167;28;20051;-86
2022/04/10 01:14:18;;;;;;;1.87;0.70;;;3.40;99.90;;;;;;4977451;28;20042;-86
2022/04/10 01:16:44;;;;;;;4.03;0.83;;;3.30;99.90;;;;;;4975282;28;20026;-86
2022/04/10 01:19:11;;;;;;;2.80;0.90;;;3.30;99.90;;;;;;4976769;28;20031;-86
2022/04/10 01:21:44;;;;;;;1.77;0.70;;;3.30;99.90;;;;;;4960808;28;20023;-86
2022/04/10 01:24:11;;;;;;;4.43;0.80;;;3.30;99.90;;;;;;4957459;28;20338;-86
2022/04/10 01:26:37;;;;;;;1.73;0.60;;;3.10;99.90;;;;;;4955407;28;20019;-86
2022/04/10 01:29:04;;;;;;;6.80;1.00;;;3.20;99.90;;;;;;4959519;28;20039;-86
2022/04/10 01:31:32;;;;;;;2.13;0.80;;;3.20;99.90;;;;;;4968632;28;20034;-86
2022/04/10 01:34:01;;;;;;;1.57;0.67;;;3.20;99.90;;;;;;4957651;28;20057;-86
2022/04/10 01:36:29;;;;;;;1.87;0.70;;;3.10;99.90;;;;;;4957468;28;20059;-86
2022/04/10 01:38:57;;;;;;;1.93;0.83;;;3.10;99.90;;;;;;4957660;28;20051;-86
2022/04/10 01:41:27;;;;;;;2.43;0.90;;;3.10;99.90;;;;;;4969709;28;20028;-86
2022/04/10 01:43:54;;;;;;;2.97;1.20;;;3.10;99.90;;;;;;4961511;28;20027;-86
2022/04/10 01:46:21;;;;;;;2.47;0.97;;;3.20;99.90;;;;;;4956760;28;20035;-86
2022/04/10 01:48:47;;;;;;;3.53;0.70;;;3.10;99.90;;;;;;4957516;28;20015;-86
2022/04/10 01:51:13;;;;;;;1.87;0.80;;;3.10;99.90;;;;;;4955920;28;20050;-86
2022/04/10 01:53:39;;;;;;;2.50;0.90;;;3.10;99.90;;;;;;4959193;28;20023;-86
2022/04/10 01:56:06;;;;;;;1.20;0.63;;;3.10;99.90;;;;;;4967785;28;20038;-86
2022/04/10 01:58:34;;;;;;;3.93;0.77;;;3.10;99.90;;;;;;4937206;29;20039;-85
2022/04/10 02:01:04;;;;;;;1.90;0.70;;;3.10;99.90;;;;;;4954935;28;20015;-86
2022/04/10 02:03:30;;;;;;;8.30;0.90;;;3.10;99.90;;;;;;4954759;28;20027;-86
2022/04/10 02:06:02;;;;;;;1.97;0.90;;;3.10;99.90;;;;;;4970939;28;20497;-87
2022/04/10 02:08:29;;;;;;;3.00;0.77;;;3.10;99.90;;;;;;4956845;28;20114;-87
2022/04/10 02:10:55;;;;;;;2.07;0.50;;;3.00;99.90;;;;;;4956739;28;20111;-86
2022/04/10 02:13:21;;;;;;;4.20;0.83;;;3.10;99.90;;;;;;4969504;28;20031;-86
2022/04/10 02:15:47;;;;;;;1.43;0.70;;;3.00;99.90;;;;;;4970922;28;20069;-86
2022/04/10 02:18:12;;;;;;;1.77;0.83;;;3.00;99.90;;;;;;4965395;28;20078;-86
2022/04/10 02:20:38;;;;;;;1.37;0.63;;;3.00;99.90;;;;;;4954025;29;20030;-86
2022/04/10 02:23:04;;;;;;;3.10;0.83;;;3.30;99.90;;;;;;4953476;28;20517;-86
2022/04/10 02:25:30;;;;;;;1.37;0.70;;;3.10;99.90;;;;;;4955046;28;20031;-86
2022/04/10 02:27:55;;;;;;;2.13;0.90;;;3.10;99.90;;;;;;4954013;28;20042;-86
2022/04/10 02:30:21;;;;;;;4.03;0.97;;;3.00;99.90;;;;;;4965811;28;20040;-86
2022/04/10 02:32:47;;;;;;;3.07;0.80;;;3.10;99.90;;;;;;4967601;28;20039;-86
2022/04/10 02:35:13;;;;;;;2.60;0.90;;;3.00;99.90;;;;;;4935384;29;20027;-85
2022/04/10 02:37:39;;;;;;;3.43;0.70;;;3.00;99.90;;;;;;4952163;28;20032;-86
2022/04/10 02:40:06;;;;;;;2.13;0.90;;;3.00;99.90;;;;;;4971270;28;20431;-86
2022/04/10 02:42:34;;;;;;;2.27;0.90;;;3.00;99.90;;;;;;4971642;28;20031;-86
2022/04/10 02:45:04;;;;;;;2.60;0.87;;;3.00;99.90;;;;;;4956884;28;20103;-86
2022/04/10 02:47:32;;;;;;;3.00;0.83;;;3.00;99.90;;;;;;4970794;28;20641;-86
2022/04/10 02:49:57;;;;;;;2.97;1.10;;;3.00;99.90;;;;;;4971865;28;20031;-85
2022/04/10 02:52:23;;;;;;;2.33;1.00;;;3.00;99.90;;;;;;4956017;28;20030;-86
2022/04/10 02:54:49;;;;;;;4.10;1.10;;;2.90;99.90;;;;;;4955945;29;20031;-86
2022/04/10 02:57:15;;;;;;;4.43;0.93;;;2.90;99.90;;;;;;4956256;28;20028;-86
2022/04/10 02:59:41;;;;;;;2.50;0.80;;;2.90;99.90;;;;;;4968708;28;20032;-85
2022/04/10 03:02:06;;;;;;;3.10;1.00;;;3.30;99.90;;;;;;4959141;28;20416;-86
2022/04/10 03:04:32;;;;;;;4.37;1.60;;;2.90;99.90;;;;;;4966131;28;20408;-85
2022/04/10 03:06:58;;;;;;;2.17;0.90;;;2.90;99.90;;;;;;4961251;28;20019;-86
2022/04/10 03:09:24;;;;;;;3.07;0.90;;;2.80;99.90;;;;;;4956986;29;20735;-85
2022/04/10 03:11:49;;;;;;;2.10;1.03;;;2.80;99.90;;;;;;4955339;29;20468;-85
2022/04/10 03:14:15;;;;;;;1.87;1.00;;;2.80;99.90;;;;;;4956999;28;20112;-86
2022/04/10 03:16:43;;;;;;;1.70;0.83;;;2.80;99.90;;;;;;4957518;28;20522;-85
2022/04/10 03:19:09;;;;;;;2.80;1.27;;;2.70;99.90;;;;;;4972919;28;20066;-85
2022/04/10 03:21:34;;;;;;;2.33;1.10;;;2.70;99.90;;;;;;4968768;28;20130;-86
2022/04/10 03:24:01;;;;;;;2.93;1.03;;;2.70;99.90;;;;;;4959519;28;20065;-86
2022/04/10 03:26:27;;;;;;;5.00;1.10;;;2.70;99.90;;;;;;4963885;28;20027;-85
2022/04/10 03:28:53;;;;;;;3.70;0.90;;;2.70;99.90;;;;;;4969925;23;20043;-86
2022/04/10 03:31:20;;;;;;;2.10;1.10;;;2.70;99.90;;;;;;4953594;28;20038;-86
2022/04/10 03:33:46;;;;;;;3.90;0.93;;;2.60;99.90;;;;;;4953787;29;20023;-85
2022/04/10 03:36:12;;;;;;;2.27;0.77;;;2.60;99.90;;;;;;4954633;28;20109;-85
2022/04/10 03:38:39;;;;;;;1.80;0.73;;;2.60;99.90;;;;;;4954602;28;20529;-85
2022/04/10 03:41:04;;;;;;;3.40;1.27;;;2.50;99.90;;;;;;4954335;28;20113;-86
2022/04/10 03:43:32;;;;;;;3.07;1.20;;;2.50;99.90;;;;;;4953880;28;20158;-86
2022/04/10 03:45:58;;;;;;;2.87;1.20;;;2.50;99.90;;;;;;4941756;28;20046;-87
2022/04/10 03:48:23;;;;;;;2.17;1.07;;;2.50;99.90;;;;;;4953910;28;20401;-86
2022/04/10 03:50:49;;;;;;;2.50;0.90;;;2.40;99.90;;;;;;4954076;29;20027;-86
2022/04/10 03:53:15;;;;;;;2.03;0.90;;;2.40;99.90;;;;;;4950193;28;20039;-86
2022/04/10 03:55:41;;;;;;;4.67;1.40;;;2.40;99.90;;;;;;4934608;29;20035;-86
2022/04/10 03:58:07;;;;;;;1.97;0.97;;;2.40;99.90;;;;;;4933708;28;20108;-86
2022/04/10 04:00:32;;;;;;;3.97;1.40;;;2.40;99.90;;;;;;4934081;29;20126;-86
2022/04/10 04:02:58;;;;;;;2.80;1.20;;;2.40;99.90;;;;;;4932971;29;20513;-86
2022/04/10 04:05:24;;;;;;;1.43;0.73;;;2.40;99.90;;;;;;4934092;29;20024;-87
2022/04/10 04:07:49;;;;;;;2.50;1.10;;;2.40;99.90;;;;;;4932299;29;20027;-85
2022/04/10 04:10:15;;;;;;;2.63;1.00;;;2.40;99.90;;;;;;4931187;28;20023;-87
2022/04/10 04:12:40;;;;;;;2.70;1.20;;;2.30;99.90;;;;;;4933715;29;20063;-86
2022/04/10 04:15:07;;;;;;;3.63;1.27;;;2.30;99.90;;;;;;4932450;29;20023;-86
2022/04/10 04:17:33;;;;;;;3.50;1.60;;;2.30;99.90;;;;;;4932218;29;20044;-87
2022/04/10 04:19:58;;;;;;;2.87;1.20;;;2.40;99.90;;;;;;4935583;28;20028;-86
2022/04/10 04:22:24;;;;;;;2.57;1.07;;;2.40;99.90;;;;;;4939959;29;20344;-86
2022/04/10 04:24:49;;;;;;;3.00;1.50;;;2.30;99.90;;;;;;4941632;28;20027;-86
2022/04/10 04:27:15;;;;;;;3.63;1.10;;;2.30;99.90;;;;;;4937580;28;20130;-87
2022/04/10 04:29:41;;;;;;;2.70;1.30;;;2.40;99.90;;;;;;4934105;29;20058;-86
2022/04/10 04:32:07;;;;;;;2.87;1.37;;;2.40;99.90;;;;;;4929234;28;20036;-87
2022/04/10 04:34:32;;;;;;;4.80;1.37;;;2.30;99.90;;;;;;4929732;29;20036;-86
2022/04/10 04:36:58;;;;;;;3.53;1.43;;;2.30;99.90;;;;;;4915263;29;20543;-86
2022/04/10 04:39:24;;;;;;;4.17;1.57;;;2.30;99.90;;;;;;4917101;29;20028;-86
2022/04/10 04:41:50;;;;;;;2.93;1.10;;;2.30;99.90;;;;;;4935073;29;20168;-86
2022/04/10 04:44:16;;;;;;;2.40;1.27;;;2.30;99.90;;;;;;4933057;28;20048;-87
2022/04/10 04:46:42;;;;;;;4.73;1.30;;;2.30;99.90;;;;;;4933215;29;20058;-86
2022/04/10 04:49:07;;;;;;;2.07;0.90;;;2.40;99.90;;;;;;4945135;28;20059;-88
2022/04/10 04:51:36;;;;;;;3.63;1.40;;;2.40;99.90;;;;;;4914652;29;20036;-87
2022/04/10 04:54:03;;;;;;;2.60;1.23;;;2.40;99.90;;;;;;4912870;29;20039;-87
2022/04/10 04:56:29;;;;;;;3.87;1.57;;;2.40;99.90;;;;;;4916496;29;20024;-86
2022/04/10 04:58:55;;;;;;;2.97;1.63;;;2.40;99.90;;;;;;4936410;28;20110;-86
2022/04/10 05:01:21;;;;;;;3.50;1.40;;;2.40;99.90;;;;;;4932156;29;20418;-87
2022/04/10 05:03:46;;;;;;;3.53;1.37;;;2.50;99.90;;;;;;4934448;29;20060;-86
2022/04/10 05:06:12;;;;;;;3.93;1.63;;;2.50;99.90;;;;;;4933415;29;20028;-87
2022/04/10 05:08:39;;;;;;;2.83;1.50;;;2.50;99.90;;;;;;4931101;29;20031;-86
2022/04/10 05:11:05;;;;;;;3.20;1.20;;;2.60;99.90;;;;;;4931102;29;20086;-86
2022/04/10 05:13:31;;;;;;;3.57;1.10;;;2.60;99.90;;;;;;4928689;29;20505;-86
2022/04/10 05:15:56;;;;;;;4.50;1.60;;;2.60;99.90;;;;;;4930184;29;20032;-91
2022/04/10 05:18:22;;;;;;;2.93;1.30;;;2.70;99.90;;;;;;4935509;29;20035;-86
2022/04/10 05:20:47;;;;;;;2.40;1.20;;;2.70;99.90;;;;;;4936079;29;20083;-86
2022/04/10 05:23:17;;;;;;;2.63;1.40;;;2.60;99.90;;;;;;4934873;29;20040;-86
2022/04/10 05:25:43;;;;;;;3.70;1.50;;;2.70;99.90;;;;;;4950672;28;20024;-87
2022/04/10 05:28:08;;;;;;;4.93;1.60;;;2.60;99.90;;;;;;4950736;28;20031;-87
2022/04/10 05:30:34;;;;;;;3.23;1.30;;;2.70;99.90;;;;;;4934401;29;20382;-86
2022/04/10 05:33:00;;;;;;;2.37;1.33;;;2.70;99.90;;;;;;4950758;28;20043;-87
2022/04/10 05:35:26;;;;;;;5.33;1.77;;;2.70;99.90;;;;;;4935436;29;20035;-87
2022/04/10 05:37:51;;;;;;;3.10;1.57;;;2.80;99.90;;;;;;4934651;28;20038;-87
2022/04/10 05:40:17;;;;;;;3.20;1.40;;;2.80;99.90;;;;;;4948525;28;20106;-86
2022/04/10 05:42:45;;;;;;;3.13;1.50;;;2.90;99.90;;;;;;4954112;28;20031;-88
2022/04/10 05:45:12;;;;;;;4.53;1.80;;;2.90;99.90;;;;;;4953985;28;20035;-87
2022/04/10 05:47:39;;;;;;;4.20;1.40;;;2.90;99.90;;;;;;4953175;28;20028;-87
2022/04/10 05:50:06;;;;;;;4.07;1.40;;;2.90;99.90;;;;;;4938405;28;20031;-86
2022/04/10 05:52:37;;;;;;;3.50;1.40;;;3.00;99.90;;;;;;4934531;29;20119;-86
2022/04/10 05:55:03;;;;;;;3.53;1.60;;;3.00;99.90;;;;;;4934434;29;20031;-87
2022/04/10 05:57:28;;;;;;;4.53;1.47;;;3.00;99.90;;;;;;4948979;28;20147;-86
2022/04/10 05:59:54;;;;;;;2.57;1.37;;;3.00;99.90;;;;;;4935320;29;20051;-86
2022/04/10 06:02:19;;;;;;;2.97;1.43;;;3.00;99.90;;;;;;4934954;28;20035;-87
2022/04/10 06:04:45;;;;;;;3.70;1.27;;;3.00;99.90;;;;;;4935842;29;20497;-86
2022/04/10 06:07:11;;;;;;;3.73;1.20;;;3.10;99.90;;;;;;4940225;28;20040;-86
2022/04/10 06:09:36;;;;;;;3.57;1.70;;;3.10;99.90;;;;;;4935686;29;20514;-86
2022/04/10 06:12:02;;;;;;;2.70;1.53;;;3.20;99.90;;;;;;4944891;29;20043;-86
2022/04/10 06:14:27;;;;;;;3.93;1.40;;;3.30;99.90;;;;;;4953572;28;20035;-86
2022/04/10 06:16:53;;;;;;;3.60;1.40;;;3.40;99.90;;;;;;4931672;28;20126;-87
2022/04/10 06:19:19;;;;;;;4.50;1.47;;;3.70;99.90;;;;;;4917716;29;20406;-86
2022/04/10 06:21:45;;;;;;;2.87;1.27;;;4.00;99.90;;;;;;4950259;28;20447;-87
2022/04/10 06:24:11;;;;;;;2.83;1.40;;;4.20;99.90;;;;;;4934462;29;20142;-87
2022/04/10 06:26:36;;;;;;;2.80;1.00;;;4.20;99.90;;;;;;4933592;29;20047;-87
2022/04/10 06:29:02;;;;;;;2.60;1.37;;;4.40;99.90;;;;;;4934907;29;20039;-87
2022/04/10 06:31:28;;;;;;;4.27;1.30;;;4.30;99.90;;;;;;4934611;29;20031;-88
2022/04/10 06:33:56;;;;;;;3.23;1.60;;;4.50;99.90;;;;;;4935197;29;20031;-86
2022/04/10 06:36:22;;;;;;;5.07;1.20;;;4.40;99.90;;;;;;4934942;29;20090;-87
2022/04/10 06:38:49;;;;;;;1.97;0.97;;;4.40;99.90;;;;;;4935314;29;20031;-87
2022/04/10 06:41:15;;;;;;;3.37;1.40;;;4.40;99.90;;;;;;4944560;29;20027;-87
2022/04/10 06:43:41;;;;;;;2.27;1.13;;;4.50;99.90;;;;;;4953405;28;20504;-87
2022/04/10 06:46:06;;;;;;;3.00;1.40;;;4.50;99.90;;;;;;4954996;28;20027;-86
2022/04/10 06:48:33;;;;;;;2.17;1.00;;;4.60;99.90;;;;;;4969224;28;20028;-87
2022/04/10 06:50:59;;;;;;;2.40;0.90;;;4.60;99.90;;;;;;4962017;28;20028;-86
2022/04/10 06:53:24;;;;;;;3.60;1.47;;;4.70;99.90;;;;;;4953797;28;20110;-86
2022/04/10 06:55:50;;;;;;;2.87;1.03;;;4.80;99.90;;;;;;4953748;28;20035;-86
2022/04/10 06:58:22;;;;;;;2.93;1.50;;;4.70;99.90;;;;;;4963748;28;20043;-86
2022/04/10 07:00:48;;;;;;;;;;;4.80;99.90;;;;;;4934632;28;20446;-87
2022/04/10 07:03:14;;;;;;;2.50;0.83;;;4.90;99.90;;;;;;4934426;29;20013;-87
2022/04/10 07:05:40;;;;;;;3.20;0.93;;;4.90;99.90;;;;;;4959867;28;20149;-86
2022/04/10 07:08:07;;;;;;;2.13;1.10;;;5.00;99.90;;;;;;4932234;29;20032;-87
2022/04/10 07:10:33;;;;;;;3.27;1.10;;;5.00;99.90;;;;;;4938400;29;20050;-87
2022/04/10 07:13:01;;;;;;;2.73;0.90;;;5.10;99.90;;;;;;4940495;29;20402;-87
2022/04/10 07:15:27;;;;;;;3.50;1.13;;;5.20;99.90;;;;;;4933684;29;20042;-87
2022/04/10 07:17:55;;;;;;;4.30;0.90;;;5.30;99.90;;;;;;4935121;29;20027;-87
2022/04/10 07:20:20;;;;;;;2.67;1.10;;;5.40;99.90;;;;;;4933658;29;20024;-88
2022/04/10 07:25:31;;;;;;;2.00;0.87;;;5.40;99.90;;;;;;4934730;29;20455;-86
2022/04/10 07:27:57;;;;;;;2.50;1.10;;;5.40;99.90;;;;;;4933329;29;20034;-87
2022/04/10 07:30:23;;;;;;;2.33;1.10;;;5.40;99.90;;;;;;4939703;28;20020;-87
2022/04/10 07:32:55;;;;;;;3.10;1.00;;;5.60;99.90;;;;;;4942449;29;20031;-88
2022/04/10 07:35:23;;;;;;;3.57;0.90;;;5.60;99.90;;;;;;4933472;29;20078;-87
2022/04/10 07:37:49;;;;;;;3.63;1.10;;;5.60;99.90;;;;;;4935709;28;20111;-86
2022/04/10 07:40:15;;;;;;;4.27;1.07;;;5.70;99.90;;;;;;4942093;29;20027;-85
2022/04/10 07:42:43;;;;;;;3.53;0.93;;;5.70;99.90;;;;;;4951406;28;20497;-86
2022/04/10 07:47:57;;;;;;;2.47;1.30;;;5.90;99.90;;;;;;4932916;29;20461;-86
2022/04/10 07:50:23;;;;;;;5.03;1.37;;;6.00;99.90;;;;;;4934102;29;20402;-87
2022/04/10 07:52:50;;;;;;;2.80;1.20;;;6.10;99.90;;;;;;4933376;29;20082;-86
2022/04/10 07:55:16;;;;;;;7.30;1.07;;;6.20;99.90;;;;;;4951190;28;20040;-86
2022/04/10 07:57:41;;;;;;;3.23;0.93;;;6.20;99.90;;;;;;4930710;29;20398;-87
2022/04/10 08:00:07;;;;;;;2.50;0.93;;;6.30;99.90;;;;;;4932647;29;20031;-86
2022/04/10 08:02:33;;;;;;;2.37;1.00;;;6.50;99.90;;;;;;4933610;29;20066;-86
2022/04/10 08:04:58;;;;;;;7.60;1.30;;;6.60;99.90;;;;;;4934156;29;20038;-87
2022/04/10 08:07:24;;;;;;;3.17;1.13;;;6.60;99.90;;;;;;4932698;29;20039;-88
2022/04/10 08:09:52;;;;;;;2.77;1.13;;;6.60;99.90;;;;;;4941120;29;20039;-86
2022/04/10 08:12:18;;;;;;;3.03;1.13;;;6.60;99.90;;;;;;4936815;29;20042;-86
2022/04/10 08:14:43;;;;;;;2.90;1.23;;;6.60;99.90;;;;;;4930884;29;20031;-86
2022/04/10 08:17:12;;;;;;;2.70;1.20;;;6.80;99.90;;;;;;4931953;29;20102;-86
2022/04/10 08:19:41;;;;;;;3.23;1.50;;;7.00;99.90;;;;;;4945689;28;20035;-86
2022/04/10 08:22:06;;;;;;;4.70;1.30;;;7.00;99.90;;;;;;4941126;29;20027;-86
2022/04/10 08:24:35;;;;;;;3.80;1.20;;;7.20;99.90;;;;;;4948601;29;20032;-87
2022/04/10 08:27:06;;;;;;;3.50;1.00;;;7.30;99.90;;;;;;4953669;28;20032;-87
2022/04/10 08:29:31;;;;;;;3.13;1.33;;;7.30;99.90;;;;;;4940606;29;20416;-87
2022/04/10 08:31:57;;;;;;;2.87;1.30;;;7.30;99.90;;;;;;4933603;29;20035;-87
2022/04/10 08:34:22;;;;;;;5.97;2.10;;;7.30;99.90;;;;;;4946283;29;20058;-86
2022/04/10 08:36:48;;;;;;;3.63;1.43;;;7.40;99.90;;;;;;4931663;29;20038;-87
2022/04/10 08:39:14;;;;;;;7.47;2.20;;;7.40;99.90;;;;;;4933020;29;20466;-87
2022/04/10 08:41:39;;;;;;;3.20;1.20;;;7.50;99.90;;;;;;4934619;29;20126;-87
2022/04/10 08:44:11;;;;;;;3.03;1.07;;;7.50;99.90;;;;;;4945826;28;20035;-87
2022/04/10 08:46:49;;;;;;;2.60;0.90;;;8.10;99.90;;;;;;4932907;29;20023;-87
2022/04/10 08:49:15;;;;;;;2.83;0.80;;;8.00;99.90;;;;;;4928237;29;20024;-87
2022/04/10 08:51:40;;;;;;;3.07;0.90;;;8.10;99.90;;;;;;4932995;29;20344;-86
2022/04/10 08:54:08;;;;;;;2.17;1.00;;;8.10;99.90;;;;;;4934039;29;20625;-86
2022/04/10 08:56:34;;;;;;;2.17;0.90;;;8.30;99.90;;;;;;4943400;29;20524;-88
2022/04/10 08:59:00;;;;;;;2.03;0.80;;;8.30;99.90;;;;;;4939301;28;20027;-88
2022/04/10 09:01:28;;;;;;;3.17;1.07;;;8.50;99.90;;;;;;4935340;29;20032;-89
2022/04/10 09:03:58;;;;;;;3.17;1.00;;;8.40;99.90;;;;;;4934996;29;20094;-88
2022/04/10 09:06:26;;;;;;;2.57;0.80;;;8.40;99.90;;;;;;4937084;29;20023;-89
2022/04/10 09:09:01;;;;;;;3.97;1.20;;;8.20;99.90;;;;;;4939880;29;20035;-88
2022/04/10 09:11:29;;;;;;;2.57;0.90;;;7.90;99.90;;;;;;4936694;29;20024;-88
2022/04/10 09:13:59;;;;;;;4.10;0.80;;;8.20;99.90;;;;;;4949391;29;20029;-89
2022/04/10 09:16:25;;;;;;;2.60;0.67;;;7.70;99.90;;;;;;4947601;29;20050;-89
2022/04/10 09:19:00;;;;;;;2.37;1.27;;;7.60;99.90;;;;;;4946890;28;20059;-90
2022/04/10 09:21:32;;;;;;;2.63;0.70;;;7.70;99.90;;;;;;4943465;29;20071;-89
2022/04/10 09:24:07;;;;;;;1.43;0.70;;;7.70;99.90;;;;;;4958481;28;20035;-89
2022/04/10 09:26:45;;;;;;;2.53;1.37;;;8.00;99.90;;;;;;4954217;29;20220;-89
2022/04/10 09:29:17;;;;;;;4.40;1.10;;;8.40;99.90;;;;;;4979998;23;20059;-88
2022/04/10 09:32:01;;;;;;;2.55;1.27;;;8.60;99.90;;;;;;4971021;28;20035;-87
2022/04/10 09:39:17;;;;;;;2.75;0.60;;;8.80;99.90;;;;;;4934336;23;20030;-87
2022/04/10 09:42:34;;;;;;;1.93;0.77;;;8.70;99.50;;;;;;4959141;28;20115;-87
2022/04/10 09:51:37;;;;;;;2.33;0.80;;;8.30;99.90;;;;;;4963038;28;20066;-88
2022/04/10 09:54:54;;;;;;;;;;;;;;;;;;;;;
2022/04/10 09:57:32;;;;;;;1.83;0.73;;;8.20;99.90;;;;;;4977151;28;20094;-88
2022/04/10 10:03:25;;;;;;;2.30;0.70;;;8.10;99.90;;;;;;4946735;28;20035;-88
2022/04/10 10:06:12;;;;;;;2.20;0.90;;;8.50;99.90;;;;;;4986327;28;20035;-88
2022/04/10 10:09:06;;;;;;;1.70;0.70;;;8.50;99.90;;;;;;4973153;28;20026;-88
2022/04/10 10:15:20;;;;;;;1.75;0.70;;;9.30;99.90;;;;;;4938962;29;20032;-90
2022/04/10 10:18:22;;;;;;;;;;;;;;;;;;;;;
2022/04/10 11:30:34;;;;;;;3.15;1.20;;;8.80;99.90;;;;;;4967640;28;20074;-86
2022/04/10 11:33:42;;;;;;;2.28;1.08;;;9.00;99.90;;;;;;4980282;28;20030;-87
2022/04/10 11:36:36;;;;;;;;;;;;;;;;;;;;;
2022/04/10 11:39:32;;;;;;;2.78;1.13;;;8.70;99.90;;;;;;4976784;28;20113;-86
2022/04/10 11:42:38;;;;;;;2.15;0.88;;;8.60;99.90;;;;;;4973587;28;20042;-87
2022/04/10 11:45:09;;;;;;;2.60;1.00;;;8.50;99.90;;;;;;4935429;28;20063;-86
2022/04/10 11:47:42;;;;;;;1.67;0.68;;;8.40;99.90;;;;;;4963493;28;20130;-86
2022/04/10 11:50:30;;;;;;;2.17;0.77;;;8.30;99.90;;;;;;4966970;28;20023;-86
2022/04/10 11:59:50;;;;;;;;;;;;;;;;;;;;;
2022/04/10 12:02:20;;;;;;;2.30;0.70;;;9.10;99.90;;;;;;4960685;28;20037;-87
2022/04/10 12:05:36;;;;;;;;;;;;;;;;;;;;;
2022/04/10 12:11:20;;;;;;;1.90;0.90;;;9.50;99.90;;;;;;4973032;28;20027;-88
2022/04/10 12:14:25;;;;;;;3.20;0.77;;;9.70;99.90;;;;;;4982585;28;20031;-88
2022/04/10 12:17:39;;;;;;;1.45;0.60;;;10.30;99.90;;;;;;4970839;28;20054;-87
2022/04/10 12:21:03;;;;;;;;;;;;;;;;;;;;;
2022/04/10 12:48:26;;;;;;;3.38;1.10;;;11.20;98.00;;;;;;4929975;29;20080;-87
2022/04/10 12:51:31;;;;;;;4.97;1.45;;;11.40;97.30;;;;;;4929423;29;20112;-87
2022/04/10 13:01:51;;;;;;;;;;;;;;;;;;;;;
2022/04/10 16:48:21;;;;;;;3.00;1.13;;;8.50;99.90;;;;;;4963801;28;20047;-86
2022/04/10 16:51:01;;;;;;;3.38;1.00;;;8.50;99.90;;;;;;4951015;28;20023;-88
2022/04/10 16:53:37;;;;;;;3.10;1.10;;;8.40;99.90;;;;;;4956929;28;20027;-86
2022/04/10 16:56:06;;;;;;;2.38;1.20;;;8.50;99.90;;;;;;4961535;28;20041;-87
2022/04/10 16:58:35;;;;;;;2.50;0.95;;;8.30;99.90;;;;;;4954315;28;20032;-88
2022/04/10 17:01:20;;;;;;;3.30;0.93;;;8.40;99.90;;;;;;4954252;28;20028;-87
2022/04/10 17:03:57;;;;;;;4.03;1.67;;;8.30;99.90;;;;;;4946194;28;20027;-86
2022/04/10 17:06:35;;;;;;;2.90;1.48;;;8.30;99.90;;;;;;4950110;28;20023;-87
2022/04/10 17:09:03;;;;;;;3.38;1.13;;;8.20;99.90;;;;;;4958287;28;20662;-87
2022/04/10 17:11:41;;;;;;;;;;;;;;;;;;;;;
2022/04/10 17:14:16;;;;;;;3.17;0.93;;;8.10;99.90;;;;;;4960344;28;20038;-86
2022/04/10 17:16:48;;;;;;;2.78;1.08;;;7.80;99.90;;;;;;4961222;28;20023;-87
2022/04/10 17:19:48;;;;;;;2.47;0.77;;;7.90;99.90;;;;;;4973621;28;21323;-87
2022/04/10 17:26:43;;;;;;;3.25;1.45;;;7.50;99.90;;;;;;4956295;28;20454;-87
2022/04/10 17:30:11;;;;;;;4.30;1.00;;;7.40;99.90;;;;;;4964941;28;20023;-87
2022/04/10 19:53:42;;;;;;;5.07;2.40;;;5.10;99.90;;;;;;3832005;26;20039;-87
2022/04/10 19:56:26;;;;;;;5.47;2.17;;;5.10;99.90;;;;;;4959825;29;20024;-85
2022/04/10 19:59:02;;;;;;;4.53;2.03;;;5.00;99.90;;;;;;4961612;28;20027;-85
2022/04/10 20:01:43;;;;;;;7.67;2.83;;;5.00;99.90;;;;;;4961301;28;20031;-86
2022/04/10 20:04:15;;;;;;;5.00;2.40;;;5.00;99.90;;;;;;4975482;28;20126;-86
2022/04/10 20:06:45;;;;;;;4.72;2.25;;;5.00;99.90;;;;;;4965517;28;20023;-86
2022/04/10 20:09:22;;;;;;;4.40;2.03;;;4.90;99.90;;;;;;4958232;28;20042;-86
2022/04/10 20:11:56;;;;;;;5.20;2.17;;;4.90;99.90;;;;;;4963573;28;20027;-86
2022/04/10 20:14:33;;;;;;;4.17;2.03;;;4.90;99.90;;;;;;4959109;28;20038;-86
2022/04/10 20:17:10;;;;;;;6.43;2.33;;;4.80;99.90;;;;;;4965579;28;20744;-86
2022/04/10 20:22:45;;;;;;;3.77;1.80;;;4.80;99.90;;;;;;4965578;28;20457;-86
2022/04/10 20:25:25;;;;;;;4.67;2.23;;;4.70;99.90;;;;;;4972247;28;20047;-86
2022/04/10 20:28:53;;;;;;;;;;;;;;;;;;;;;
2022/04/10 20:31:37;;;;;;;4.73;2.10;;;4.70;99.90;;;;;;4945415;29;20102;-86
2022/04/10 20:34:15;;;;;;;6.10;2.10;;;4.60;99.90;;;;;;4928210;29;20047;-86
2022/04/10 20:36:57;;;;;;;5.13;2.00;;;4.60;99.90;;;;;;4938162;28;20046;-86
2022/04/10 20:39:33;;;;;;;5.67;2.43;;;4.50;99.90;;;;;;4970782;28;20031;-86
2022/04/10 20:42:11;;;;;;;5.60;2.40;;;4.50;99.90;;;;;;4970489;28;20028;-86
2022/04/10 20:44:53;;;;;;;4.33;2.00;;;4.40;99.90;;;;;;4976245;28;20037;-87
2022/04/10 20:47:32;;;;;;;5.18;2.22;;;4.50;99.90;;;;;;4963945;28;20339;-86
2022/04/10 20:50:16;;;;;;;4.07;1.83;;;4.40;99.90;;;;;;4970810;28;20023;-84
2022/04/10 20:52:50;;;;;;;5.70;2.10;;;4.40;99.90;;;;;;4969485;28;20046;-86
2022/04/10 20:55:24;;;;;;;5.33;2.10;;;4.30;99.90;;;;;;4969012;28;20524;-86
2022/04/10 20:57:55;;;;;;;4.30;1.87;;;4.20;99.90;;;;;;4958909;28;20046;-87
2022/04/10 21:00:46;;;;;;;4.55;1.75;;;4.30;99.90;;;;;;4954081;28;20527;-86
2022/04/10 21:03:25;;;;;;;3.57;1.70;;;4.20;99.90;;;;;;4973578;28;20027;-85
2022/04/10 21:06:08;;;;;;;5.37;1.87;;;4.10;99.90;;;;;;4977920;28;20027;-86
2022/04/10 21:08:55;;;;;;;3.93;1.60;;;4.20;99.90;;;;;;4981476;28;20028;-85
2022/04/10 21:11:37;;;;;;;8.03;1.70;;;4.20;99.90;;;;;;4988698;28;20027;-85
2022/04/10 21:14:27;;;;;;;5.32;1.77;;;4.10;99.90;;;;;;4968182;28;20041;-85
2022/04/10 21:17:26;;;;;;;4.07;1.67;;;4.20;99.90;;;;;;4967718;28;20148;-85
2022/04/10 21:20:16;;;;;;;5.73;1.53;;;4.00;99.90;;;;;;4968072;28;20049;-85
2022/04/10 21:26:27;;;;;;;5.50;1.67;;;4.10;99.90;;;;;;4976364;28;20069;-88
2022/04/10 21:30:11;;;;;;;4.82;1.30;;;4.10;99.90;;;;;;4980335;28;20509;-87
2022/04/10 21:32:58;;;;;;;;;;;;;;;;;;;;;
2022/04/10 21:39:14;;;;;;;2.87;1.13;;;4.00;99.90;;;;;;4919886;29;20062;-87
2022/04/10 21:42:52;;;;;;;3.00;1.53;;;4.00;99.90;;;;;;4939119;28;20132;-87
2022/04/10 21:46:13;;;;;;;3.43;1.57;;;4.00;99.90;;;;;;4915482;28;20493;-87
2022/04/10 21:53:44;;;;;;;3.73;1.33;;;3.90;99.90;;;;;;4965822;28;20028;-88
2022/04/10 22:02:11;;;;;;;3.27;1.63;;;3.80;99.90;;;;;;4918901;29;20357;-87
2022/04/10 22:04:49;;;;;;;3.27;1.80;;;3.80;99.90;;;;;;4974257;28;20063;-86
2022/04/10 22:07:18;;;;;;;3.93;1.57;;;3.80;99.90;;;;;;4964615;28;20118;-87
2022/04/10 22:10:05;;;;;;;3.77;1.83;;;3.80;99.90;;;;;;4957386;28;20032;-87
2022/04/10 22:12:46;;;;;;;4.20;1.90;;;3.70;99.90;;;;;;4964481;28;20023;-87
2022/04/10 22:15:31;;;;;;;3.83;2.00;;;3.60;99.90;;;;;;4958282;28;20031;-87
2022/04/10 22:18:20;;;;;;;4.27;1.90;;;3.70;99.90;;;;;;4965944;28;20042;-87